createdAt,value
2022-10-10T00:00:18.013Z,26.24
2022-10-10T00:02:44.533Z,26.25
2022-10-10T00:05:12.243Z,26.26
2022-10-10T00:07:38.619Z,26.24
2022-10-10T00:10:04.934Z,26.24
2022-10-10T00:12:31.804Z,26.25
2022-10-10T00:14:58.148Z,26.25
2022-10-10T00:17:26.901Z,26.25
2022-10-10T00:19:53.659Z,26.24
2022-10-10T00:22:20.036Z,26.21
2022-10-10T00:24:46.373Z,26.19
2022-10-10T00:27:12.712Z,26.20
2022-10-10T00:29:39.062Z,26.19
2022-10-10T00:32:05.516Z,26.23
2022-10-10T00:34:31.847Z,26.19
2022-10-10T00:36:58.495Z,26.13
2022-10-10T00:39:25.361Z,26.16
2022-10-10T00:41:55.355Z,26.17
2022-10-10T00:44:21.717Z,26.19
2022-10-10T00:46:48.105Z,26.19
2022-10-10T00:49:15.268Z,26.20
2022-10-10T00:51:41.600Z,26.18
2022-10-10T00:54:08.362Z,26.15
2022-10-10T00:56:35.164Z,26.16
2022-10-10T00:59:02.426Z,26.17
2022-10-10T01:01:28.725Z,26.18
2022-10-10T01:03:55.120Z,26.21
2022-10-10T01:06:22.584Z,26.13
2022-10-10T01:08:48.927Z,26.17
2022-10-10T01:11:15.270Z,26.13
2022-10-10T01:13:41.604Z,26.15
2022-10-10T01:16:08.055Z,26.18
2022-10-10T01:18:34.399Z,26.15
2022-10-10T01:21:01.157Z,26.17
2022-10-10T01:23:29.515Z,26.11
2022-10-10T01:25:54.628Z,26.16
2022-10-10T01:28:21.043Z,26.20
2022-10-10T01:30:47.303Z,26.18
2022-10-10T01:33:13.649Z,26.13
2022-10-10T01:35:39.992Z,26.15
2022-10-10T01:38:06.331Z,26.13
2022-10-10T01:40:33.568Z,26.16
2022-10-10T01:43:00.033Z,26.10
2022-10-10T01:45:26.418Z,26.13
2022-10-10T01:47:52.803Z,26.15
2022-10-10T01:50:19.146Z,26.12
2022-10-10T01:52:50.548Z,26.10
2022-10-10T01:55:21.098Z,26.13
2022-10-10T01:57:47.657Z,26.12
2022-10-10T02:00:14.865Z,26.13
2022-10-10T02:02:41.211Z,26.10
2022-10-10T02:05:07.697Z,25.96
2022-10-10T02:07:36.842Z,25.96
2022-10-10T02:10:03.178Z,25.91
2022-10-10T02:12:34.136Z,25.96
2022-10-10T02:15:01.152Z,25.87
2022-10-10T02:17:27.768Z,25.93
2022-10-10T02:19:54.120Z,25.90
2022-10-10T02:22:20.477Z,25.90
2022-10-10T02:24:46.843Z,25.87
2022-10-10T02:27:19.329Z,25.88
2022-10-10T02:29:46.884Z,25.84
2022-10-10T02:32:12.031Z,25.86
2022-10-10T02:34:42.157Z,25.84
2022-10-10T02:37:13.596Z,25.86
2022-10-10T02:39:40.874Z,25.82
2022-10-10T02:42:14.289Z,25.80
2022-10-10T02:44:41.825Z,25.82
2022-10-10T02:47:08.225Z,25.83
2022-10-10T02:49:50.906Z,25.77
2022-10-10T02:52:24.950Z,25.76
2022-10-10T02:54:51.285Z,25.75
2022-10-10T02:57:17.623Z,25.79
2022-10-10T02:59:50.227Z,25.80
2022-10-10T03:05:05.665Z,25.80
2022-10-10T03:07:29.294Z,25.74
2022-10-10T03:09:55.626Z,25.77
2022-10-10T03:12:21.970Z,25.73
2022-10-10T03:14:48.312Z,25.74
2022-10-10T03:17:14.667Z,25.72
2022-10-10T03:19:43.228Z,25.69
2022-10-10T03:22:10.401Z,25.72
2022-10-10T03:24:44.329Z,25.74
2022-10-10T03:29:57.073Z,25.66
2022-10-10T03:32:24.773Z,25.73
2022-10-10T03:35:06.495Z,25.67
2022-10-10T03:37:32.857Z,25.65
2022-10-10T03:39:59.562Z,25.65
2022-10-10T03:42:25.899Z,25.66
2022-10-10T03:44:52.252Z,25.64
2022-10-10T03:47:18.632Z,25.66
2022-10-10T03:49:47.809Z,25.65
2022-10-10T03:54:59.998Z,25.72
2022-10-10T03:57:26.343Z,25.65
2022-10-10T03:59:52.674Z,25.67
2022-10-10T04:02:21.203Z,25.65
2022-10-10T04:04:48.025Z,25.67
2022-10-10T04:07:14.391Z,25.71
2022-10-10T04:09:40.807Z,25.65
2022-10-10T04:12:10.375Z,25.66
2022-10-10T04:14:36.713Z,25.67
2022-10-10T04:17:03.502Z,25.62
2022-10-10T04:22:15.058Z,25.68
2022-10-10T04:24:41.394Z,25.63
2022-10-10T04:27:07.784Z,25.61
2022-10-10T04:29:34.133Z,25.61
2022-10-10T04:32:00.470Z,25.63
2022-10-10T04:34:26.828Z,25.67
2022-10-10T04:36:53.164Z,25.64
2022-10-10T04:39:19.515Z,25.64
2022-10-10T04:41:45.895Z,25.64
2022-10-10T04:44:12.198Z,25.65
2022-10-10T04:46:38.590Z,25.66
2022-10-10T04:49:04.925Z,25.65
2022-10-10T04:51:31.281Z,25.67
2022-10-10T04:53:57.727Z,25.63
2022-10-10T04:56:25.304Z,25.60
2022-10-10T04:58:50.414Z,25.62
2022-10-10T05:01:16.786Z,25.66
2022-10-10T05:03:43.112Z,25.63
2022-10-10T05:06:09.466Z,25.62
2022-10-10T05:08:35.815Z,25.64
2022-10-10T05:11:02.159Z,25.60
2022-10-10T05:13:28.504Z,25.61
2022-10-10T05:15:54.866Z,25.65
2022-10-10T05:18:21.225Z,25.62
2022-10-10T05:20:47.600Z,25.63
2022-10-10T05:23:13.938Z,25.58
2022-10-10T05:25:40.329Z,25.60
2022-10-10T05:28:06.761Z,25.66
2022-10-10T05:30:33.080Z,25.71
2022-10-10T05:32:59.427Z,25.64
2022-10-10T05:35:25.821Z,25.64
2022-10-10T05:37:52.185Z,25.64
2022-10-10T05:40:18.537Z,25.64
2022-10-10T05:42:44.883Z,25.64
2022-10-10T05:45:11.306Z,25.62
2022-10-10T05:47:37.720Z,25.63
2022-10-10T05:50:04.084Z,25.67
2022-10-10T05:52:30.468Z,25.64
2022-10-10T05:54:56.823Z,25.58
2022-10-10T05:57:23.159Z,25.59
2022-10-10T05:59:49.495Z,25.59
2022-10-10T06:02:15.865Z,25.63
2022-10-10T06:04:42.213Z,25.66
2022-10-10T06:07:08.581Z,25.65
2022-10-10T06:09:34.918Z,25.68
2022-10-10T06:12:01.298Z,25.66
2022-10-10T06:14:27.632Z,25.69
2022-10-10T06:16:53.977Z,25.69
2022-10-10T06:19:20.352Z,25.71
2022-10-10T06:21:46.712Z,25.67
2022-10-10T06:24:13.068Z,25.65
2022-10-10T06:26:39.488Z,25.66
2022-10-10T06:29:05.830Z,25.64
2022-10-10T06:31:32.716Z,25.67
2022-10-10T06:33:59.088Z,25.67
2022-10-10T06:36:25.448Z,25.67
2022-10-10T06:38:51.802Z,25.75
2022-10-10T06:41:18.146Z,25.71
2022-10-10T06:43:44.498Z,25.68
2022-10-10T06:46:10.871Z,25.66
2022-10-10T06:48:37.222Z,25.71
2022-10-10T06:51:03.556Z,25.74
2022-10-10T06:53:29.918Z,25.81
2022-10-10T06:55:56.278Z,25.82
2022-10-10T06:58:22.636Z,25.80
2022-10-10T07:00:49.032Z,25.84
2022-10-10T07:03:15.366Z,25.88
2022-10-10T07:05:41.704Z,25.87
2022-10-10T07:08:08.110Z,25.84
2022-10-10T07:10:34.468Z,25.88
2022-10-10T07:13:00.834Z,25.91
2022-10-10T07:15:27.258Z,25.95
2022-10-10T07:17:54.515Z,25.99
2022-10-10T07:20:20.025Z,25.92
2022-10-10T07:22:46.441Z,25.91
2022-10-10T07:25:12.801Z,25.93
2022-10-10T07:27:39.176Z,25.99
2022-10-10T07:30:05.531Z,25.92
2022-10-10T07:32:31.956Z,25.97
2022-10-10T07:34:58.369Z,25.98
2022-10-10T07:37:24.716Z,25.97
2022-10-10T07:39:51.069Z,25.98
2022-10-10T07:42:17.483Z,26.01
2022-10-10T07:44:43.832Z,25.99
2022-10-10T07:47:10.211Z,26.06
2022-10-10T07:49:36.603Z,26.03
2022-10-10T07:52:02.949Z,26.08
2022-10-10T07:54:29.261Z,26.16
2022-10-10T07:56:55.635Z,26.16
2022-10-10T07:59:21.990Z,26.17
2022-10-10T08:01:48.389Z,26.11
2022-10-10T08:04:14.721Z,26.19
2022-10-10T08:06:41.082Z,26.20
2022-10-10T08:09:07.449Z,26.18
2022-10-10T08:11:33.821Z,26.21
2022-10-10T08:14:00.300Z,26.21
2022-10-10T08:16:26.646Z,26.22
2022-10-10T08:18:52.991Z,26.25
2022-10-10T08:21:19.347Z,26.26
2022-10-10T08:23:45.700Z,26.31
2022-10-10T08:26:12.070Z,26.32
2022-10-10T08:28:38.472Z,26.36
2022-10-10T08:31:05.988Z,26.38
2022-10-10T08:33:31.144Z,26.38
2022-10-10T08:35:57.521Z,26.41
2022-10-10T08:38:23.897Z,26.36
2022-10-10T08:40:50.992Z,26.37
2022-10-10T08:43:17.356Z,26.38
2022-10-10T08:45:43.704Z,26.46
2022-10-10T08:48:10.052Z,26.47
2022-10-10T08:50:36.414Z,26.50
2022-10-10T08:53:02.754Z,26.51
2022-10-10T08:55:29.108Z,26.46
2022-10-10T08:57:55.484Z,26.55
2022-10-10T09:00:21.820Z,26.57
2022-10-10T09:02:54.103Z,26.57
2022-10-10T09:05:14.553Z,26.64
2022-10-10T09:07:40.937Z,26.67
2022-10-10T09:10:07.352Z,26.65
2022-10-10T09:12:33.723Z,26.65
2022-10-10T09:15:02.637Z,26.75
2022-10-10T09:17:26.518Z,26.76
2022-10-10T09:19:52.848Z,26.78
2022-10-10T09:22:19.279Z,26.75
2022-10-10T09:24:45.645Z,26.75
2022-10-10T09:27:12.025Z,26.76
2022-10-10T09:29:38.397Z,26.76
2022-10-10T09:32:04.763Z,26.80
2022-10-10T09:34:31.145Z,26.80
2022-10-10T09:36:59.424Z,26.83
2022-10-10T09:39:23.847Z,26.83
2022-10-10T09:41:50.194Z,26.76
2022-10-10T09:44:16.575Z,26.85
2022-10-10T09:46:42.958Z,26.82
2022-10-10T09:49:09.339Z,26.85
2022-10-10T09:51:35.695Z,26.87
2022-10-10T09:54:02.093Z,26.85
2022-10-10T09:56:28.401Z,26.87
2022-10-10T09:58:54.788Z,26.85
2022-10-10T10:01:21.290Z,26.92
2022-10-10T10:03:47.583Z,26.97
2022-10-10T10:06:13.929Z,26.94
2022-10-10T10:08:40.360Z,26.89
2022-10-10T10:11:06.734Z,26.94
2022-10-10T10:13:33.121Z,27.00
2022-10-10T10:15:59.452Z,26.94
2022-10-10T10:18:25.780Z,26.99
2022-10-10T10:20:52.139Z,27.02
2022-10-10T10:23:18.579Z,27.04
2022-10-10T10:25:44.958Z,27.05
2022-10-10T10:28:11.356Z,26.99
2022-10-10T10:30:37.661Z,27.05
2022-10-10T10:33:04.001Z,27.04
2022-10-10T10:35:31.548Z,27.11
2022-10-10T10:37:56.692Z,27.02
2022-10-10T10:40:23.173Z,26.95
2022-10-10T10:42:49.439Z,26.97
2022-10-10T10:45:15.796Z,26.93
2022-10-10T10:47:42.205Z,26.96
2022-10-10T10:50:08.557Z,26.98
2022-10-10T10:52:34.892Z,26.98
2022-10-10T10:55:01.248Z,26.99
2022-10-10T10:57:36.572Z,26.98
2022-10-10T11:00:26.473Z,26.98
2022-10-10T11:02:37.123Z,26.95
2022-10-10T11:05:17.386Z,26.97
2022-10-10T11:07:18.816Z,26.93
2022-10-10T11:09:55.001Z,26.93
2022-10-10T11:12:05.804Z,26.99
2022-10-10T11:14:32.156Z,27.04
2022-10-10T11:16:58.518Z,27.00
2022-10-10T11:19:24.853Z,27.02
2022-10-10T11:21:51.265Z,27.02
2022-10-10T11:24:17.614Z,27.07
2022-10-10T11:26:43.963Z,26.99
2022-10-10T11:29:10.377Z,27.02
2022-10-10T11:31:36.731Z,27.00
2022-10-10T11:34:03.087Z,26.98
2022-10-10T11:36:30.795Z,26.98
2022-10-10T11:38:57.319Z,27.04
2022-10-10T11:41:23.654Z,27.00
2022-10-10T11:43:49.999Z,27.06
2022-10-10T11:46:16.406Z,27.05
2022-10-10T11:48:42.746Z,27.01
2022-10-10T11:51:11.768Z,26.97
2022-10-10T11:53:35.452Z,27.02
2022-10-10T11:56:04.393Z,27.07
2022-10-10T11:58:30.515Z,27.13
2022-10-10T12:00:56.886Z,27.09
2022-10-10T12:03:23.264Z,27.10
2022-10-10T12:05:49.585Z,27.14
2022-10-10T12:08:18.079Z,27.11
2022-10-10T12:10:42.301Z,27.08
2022-10-10T12:13:08.660Z,27.10
2022-10-10T12:15:39.975Z,27.15
2022-10-10T12:18:01.374Z,27.19
2022-10-10T12:20:27.745Z,27.23
2022-10-10T12:22:54.939Z,27.37
2022-10-10T12:25:21.159Z,27.46
2022-10-10T12:27:47.538Z,27.52
2022-10-10T12:32:54.308Z,27.52
2022-10-10T12:35:20.598Z,27.55
2022-10-10T12:37:47.015Z,27.59
2022-10-10T12:40:13.394Z,27.63
2022-10-10T12:42:39.735Z,27.68
2022-10-10T12:45:06.073Z,27.52
2022-10-10T12:47:59.897Z,27.47
2022-10-10T12:49:58.772Z,27.44
2022-10-10T12:52:25.116Z,27.37
2022-10-10T12:54:51.456Z,27.35
2022-10-10T12:57:17.814Z,27.31
2022-10-10T12:59:44.170Z,27.37
2022-10-10T13:02:10.595Z,27.39
2022-10-10T13:04:37.044Z,27.28
2022-10-10T13:07:03.371Z,27.28
2022-10-10T13:09:34.719Z,27.31
2022-10-10T13:11:57.367Z,27.34
2022-10-10T13:14:22.496Z,27.32
2022-10-10T13:16:48.844Z,27.24
2022-10-10T13:19:15.190Z,27.30
2022-10-10T13:21:42.691Z,27.30
2022-10-10T13:24:07.880Z,27.31
2022-10-10T13:26:34.225Z,27.25
2022-10-10T13:29:00.563Z,27.22
2022-10-10T13:31:26.918Z,27.21
2022-10-10T13:33:53.256Z,27.29
2022-10-10T13:36:19.598Z,27.27
2022-10-10T13:38:45.943Z,27.28
2022-10-10T13:41:12.284Z,27.24
2022-10-10T13:43:38.632Z,27.20
2022-10-10T13:46:04.966Z,27.17
2022-10-10T13:48:31.310Z,27.21
2022-10-10T13:50:57.789Z,27.20
2022-10-10T13:53:24.131Z,27.14
2022-10-10T13:55:50.471Z,27.06
2022-10-10T13:58:16.821Z,27.10
2022-10-10T14:00:43.192Z,27.09
2022-10-10T14:03:09.545Z,27.08
2022-10-10T14:05:35.882Z,27.09
2022-10-10T14:08:02.228Z,27.12
2022-10-10T14:10:28.570Z,27.11
2022-10-10T14:12:54.974Z,27.10
2022-10-10T14:15:21.414Z,27.06
2022-10-10T14:17:47.711Z,27.08
2022-10-10T14:20:14.048Z,27.11
2022-10-10T14:22:40.393Z,27.20
2022-10-10T14:25:07.919Z,27.30
2022-10-10T14:27:36.953Z,27.37
2022-10-10T14:29:59.403Z,27.38
2022-10-10T14:32:25.747Z,27.27
2022-10-10T14:34:52.125Z,27.19
2022-10-10T14:37:18.451Z,27.13
2022-10-10T14:39:44.850Z,27.14
2022-10-10T14:42:11.198Z,27.20
2022-10-10T14:44:37.535Z,27.28
2022-10-10T14:47:03.898Z,27.25
2022-10-10T14:49:30.215Z,27.25
2022-10-10T14:51:56.634Z,27.21
2022-10-10T14:54:22.968Z,27.22
2022-10-10T14:57:06.515Z,27.22
2022-10-10T14:59:15.653Z,27.11
2022-10-10T15:01:41.994Z,27.15
2022-10-10T15:04:08.345Z,27.19
2022-10-10T15:06:50.001Z,27.14
2022-10-10T15:09:01.041Z,27.07
2022-10-10T15:11:27.379Z,27.06
2022-10-10T15:13:53.713Z,27.07
2022-10-10T15:16:20.056Z,27.14
2022-10-10T15:18:54.269Z,27.10
2022-10-10T15:21:12.760Z,27.09
2022-10-10T15:23:39.096Z,27.04
2022-10-10T15:26:05.443Z,27.00
2022-10-10T15:28:31.892Z,27.00
2022-10-10T15:30:58.140Z,26.98
2022-10-10T15:33:24.471Z,26.95
2022-10-10T15:36:08.674Z,26.97
2022-10-10T15:38:17.155Z,26.93
2022-10-10T15:40:43.494Z,26.91
2022-10-10T15:43:09.829Z,26.92
2022-10-10T15:45:54.904Z,26.91
2022-10-10T15:48:02.549Z,26.89
2022-10-10T15:50:28.900Z,26.89
2022-10-10T15:52:55.244Z,26.85
2022-10-10T15:55:21.585Z,26.90
2022-10-10T15:57:49.265Z,26.83
2022-10-10T16:00:14.266Z,26.85
2022-10-10T16:02:40.611Z,26.82
2022-10-10T16:05:06.953Z,26.79
2022-10-10T16:07:40.764Z,26.79
2022-10-10T16:09:59.693Z,26.67
2022-10-10T16:12:25.966Z,26.77
2022-10-10T16:14:52.335Z,26.77
2022-10-10T16:17:23.147Z,26.73
2022-10-10T16:19:45.009Z,26.84
2022-10-10T16:22:11.398Z,26.83
2022-10-10T16:24:37.756Z,26.83
2022-10-10T16:27:04.091Z,26.77
2022-10-10T16:29:30.437Z,26.80
2022-10-10T16:31:56.777Z,26.72
2022-10-10T16:34:23.118Z,26.79
2022-10-10T16:36:49.480Z,26.81
2022-10-10T16:39:15.850Z,26.75
2022-10-10T16:41:47.950Z,26.75
2022-10-10T16:44:08.535Z,26.71
2022-10-10T16:46:34.872Z,26.68
2022-10-10T16:49:01.217Z,26.69
2022-10-10T16:51:27.604Z,26.72
2022-10-10T16:53:53.956Z,26.60
2022-10-10T16:56:20.283Z,26.64
2022-10-10T16:58:46.630Z,26.65
2022-10-10T17:01:13.420Z,26.64
2022-10-10T17:03:39.315Z,26.62
2022-10-10T17:06:05.640Z,26.58
2022-10-10T17:08:32.023Z,26.52
2022-10-10T17:10:58.356Z,26.42
2022-10-10T17:13:24.691Z,26.45
2022-10-10T17:15:51.034Z,26.49
2022-10-10T17:18:17.369Z,26.47
2022-10-10T17:20:43.707Z,26.39
2022-10-10T17:23:10.104Z,26.39
2022-10-10T17:25:36.439Z,26.48
2022-10-10T17:28:03.768Z,26.53
2022-10-10T17:30:29.187Z,26.50
2022-10-10T17:32:55.520Z,26.45
2022-10-10T17:35:21.857Z,26.47
2022-10-10T17:37:48.206Z,26.47
2022-10-10T17:40:14.542Z,26.49
2022-10-10T17:42:40.889Z,26.52
2022-10-10T17:45:07.228Z,26.50
2022-10-10T17:47:33.580Z,26.48
2022-10-10T17:49:59.913Z,26.46
2022-10-10T17:52:26.276Z,26.49
2022-10-10T17:54:52.615Z,26.51
2022-10-10T17:57:18.963Z,26.51
2022-10-10T17:59:45.366Z,26.49
2022-10-10T18:02:11.711Z,26.46
2022-10-10T18:04:38.052Z,26.45
2022-10-10T18:07:04.389Z,26.38
2022-10-10T18:09:30.718Z,26.38
2022-10-10T18:11:57.075Z,26.37
2022-10-10T18:14:23.430Z,26.34
2022-10-10T18:16:49.781Z,26.34
2022-10-10T18:19:16.144Z,26.39
2022-10-10T18:21:42.484Z,26.41
2022-10-10T18:24:08.835Z,26.42
2022-10-10T18:26:35.172Z,26.38
2022-10-10T18:29:01.514Z,26.38
2022-10-10T18:31:27.893Z,26.35
2022-10-10T18:33:54.255Z,26.38
2022-10-10T18:36:20.597Z,26.34
2022-10-10T18:38:46.940Z,26.32
2022-10-10T18:41:13.315Z,26.32
2022-10-10T18:43:39.656Z,26.27
2022-10-10T18:46:05.991Z,26.33
2022-10-10T18:48:32.327Z,26.31
2022-10-10T18:50:58.663Z,26.35
2022-10-10T18:53:25.012Z,26.34
2022-10-10T18:55:51.347Z,26.32
2022-10-10T18:58:17.683Z,26.36
2022-10-10T19:00:44.025Z,26.35
2022-10-10T19:03:10.361Z,26.39
2022-10-10T19:05:36.706Z,26.33
2022-10-10T19:08:03.040Z,26.33
2022-10-10T19:10:29.385Z,26.33
2022-10-10T19:15:42.970Z,26.33
2022-10-10T19:18:07.324Z,26.36
2022-10-10T19:20:33.664Z,26.35
2022-10-10T19:23:00.001Z,26.35
2022-10-10T19:25:26.348Z,26.37
2022-10-10T19:27:52.696Z,26.37
2022-10-10T19:30:19.051Z,26.36
2022-10-10T19:35:11.726Z,26.36
2022-10-10T19:37:38.071Z,26.36
2022-10-10T19:40:04.407Z,26.36
2022-10-10T19:42:30.740Z,26.35
2022-10-10T19:44:57.083Z,26.36
2022-10-10T19:47:23.423Z,26.35
2022-10-10T19:49:49.759Z,26.33
2022-10-10T19:52:16.092Z,26.34
2022-10-10T19:54:42.440Z,26.37
2022-10-10T19:57:08.772Z,26.32
2022-10-10T19:59:35.117Z,26.34
2022-10-10T20:02:01.522Z,26.32
2022-10-10T20:04:27.822Z,26.33
2022-10-10T20:06:54.165Z,26.33
2022-10-10T20:09:20.508Z,26.34
2022-10-10T20:11:46.843Z,26.32
2022-10-10T20:14:13.182Z,26.27
2022-10-10T20:16:39.518Z,26.28
2022-10-10T20:19:05.862Z,26.28
2022-10-10T20:21:32.198Z,26.27
2022-10-10T20:23:58.633Z,26.31
2022-10-10T20:26:24.969Z,26.24
2022-10-10T20:28:51.374Z,26.28
2022-10-10T20:31:17.654Z,26.30
2022-10-10T20:33:43.996Z,26.30
2022-10-10T20:36:10.461Z,26.27
2022-10-10T20:38:36.795Z,26.27
2022-10-10T20:41:03.141Z,26.28
2022-10-10T20:43:29.470Z,26.27
2022-10-10T20:45:55.815Z,26.26
2022-10-10T20:48:22.157Z,26.25
2022-10-10T20:50:48.482Z,26.26
2022-10-10T20:53:14.851Z,26.22
2022-10-10T20:55:41.197Z,26.21
2022-10-10T20:58:07.529Z,26.20
2022-10-10T21:00:33.895Z,26.23
2022-10-10T21:03:00.336Z,26.22
2022-10-10T21:05:27.780Z,26.20
2022-10-10T21:07:54.115Z,26.22
2022-10-10T21:10:20.456Z,26.22
2022-10-10T21:12:46.806Z,26.21
2022-10-10T21:15:13.179Z,26.22
2022-10-10T21:17:39.508Z,26.20
2022-10-10T21:20:05.853Z,26.20
2022-10-10T21:22:32.191Z,26.20
2022-10-10T21:24:58.534Z,26.22
2022-10-10T21:27:24.873Z,26.22
2022-10-10T21:29:51.209Z,26.21
2022-10-10T21:32:17.545Z,26.19
2022-10-10T21:34:43.877Z,26.18
2022-10-10T21:37:10.265Z,26.18
2022-10-10T21:39:36.609Z,26.18
2022-10-10T21:42:02.967Z,26.17
2022-10-10T21:44:29.315Z,26.17
2022-10-10T21:46:55.688Z,26.17
2022-10-10T21:49:22.031Z,26.15
2022-10-10T21:51:48.364Z,26.15
2022-10-10T21:54:14.716Z,26.16
2022-10-10T21:56:41.049Z,26.16
2022-10-10T21:59:07.386Z,26.19
2022-10-10T22:01:33.738Z,26.18
2022-10-10T22:04:00.071Z,26.18
2022-10-10T22:06:26.411Z,26.18
2022-10-10T22:08:52.760Z,26.18
2022-10-10T22:11:19.093Z,26.17
2022-10-10T22:13:45.440Z,26.16
2022-10-10T22:16:11.776Z,26.19
2022-10-10T22:18:38.119Z,26.15
2022-10-10T22:21:04.591Z,26.15
2022-10-10T22:23:30.943Z,26.16
2022-10-10T22:25:57.272Z,26.13
2022-10-10T22:28:23.660Z,26.13
2022-10-10T22:30:49.950Z,26.16
2022-10-10T22:33:16.290Z,26.15
2022-10-10T22:35:42.632Z,26.15
2022-10-10T22:38:09.034Z,26.11
2022-10-10T22:40:35.347Z,26.13
2022-10-10T22:43:01.699Z,26.13
2022-10-10T22:45:28.119Z,26.12
2022-10-10T22:47:54.458Z,26.12
2022-10-10T22:50:20.817Z,26.11
2022-10-10T22:52:47.162Z,26.10
2022-10-10T22:55:18.248Z,26.12
2022-10-10T22:57:39.838Z,26.13
2022-10-10T23:00:06.169Z,26.12
2022-10-10T23:02:32.654Z,26.12
2022-10-10T23:04:59.012Z,26.10
2022-10-10T23:07:25.355Z,26.10
2022-10-10T23:09:51.697Z,26.11
2022-10-10T23:12:18.073Z,26.11
2022-10-10T23:14:44.413Z,26.12
2022-10-10T23:17:10.755Z,26.10
2022-10-10T23:19:37.098Z,26.11
2022-10-10T23:22:03.440Z,26.10
2022-10-10T23:24:29.772Z,26.09
2022-10-10T23:26:56.119Z,26.09
2022-10-10T23:29:22.454Z,26.07
2022-10-10T23:31:48.827Z,26.08
2022-10-10T23:34:15.165Z,26.07
2022-10-10T23:36:41.572Z,26.07
2022-10-10T23:39:10.054Z,26.07
2022-10-10T23:41:34.254Z,26.06
2022-10-10T23:44:00.590Z,26.04
2022-10-10T23:46:26.930Z,26.03
2022-10-10T23:48:53.263Z,26.06
2022-10-10T23:51:19.620Z,26.04
2022-10-10T23:53:45.954Z,26.05
2022-10-10T23:56:12.320Z,26.04
2022-10-10T23:58:38.668Z,26.04
